WetterOnline ( https://www.wetteronline.ch )

Wetter aktuell Karlsruhe

Aktuelles Wetter: Rheinstetten (116m)

6-stündlich | Neueste Meldungen
Ortszeit Temperatur Wetter
Fr, 29.05. 14:00 22.0° C fast wolkenlos
Fr, 29.05. 8:00 13.0° C wolkenlos
Fr, 29.05. 2:00 11.5° C wolkenlos
Do, 28.05. 20:00 20.9° C wolkenlos
Do, 28.05. 14:00 20.6° C leicht bewölkt
Do, 28.05. 8:00 12.4° C leicht bewölkt
Do, 28.05. 2:00 9.6° C wolkenlos
Mi, 27.05. 20:00 22.6° C fast wolkenlos
Ortszeit Temperatur Wetter
Fr, 29.05. 16:00 22.1° C fast wolkenlos
Fr, 29.05. 15:50 22.1° C fast wolkenlos
Fr, 29.05. 15:40 22.3° C leicht bewölkt
Fr, 29.05. 15:30 20.7° C wolkig
Fr, 29.05. 15:20 20.7° C wolkig
Fr, 29.05. 15:10 21.2° C leicht bewölkt
Fr, 29.05. 15:00 22.1° C wolkig
Fr, 29.05. 14:30 22.1° C fast wolkenlos
Fr, 29.05. 14:00 22.0° C fast wolkenlos
Fr, 29.05. 13:30 21.4° C fast wolkenlos
Fr, 29.05. 13:00 20.9° C fast wolkenlos
Ortszeit Relative Feuchte Sichtweite
Fr, 29.05. 14:00 32% 35 km
Fr, 29.05. 8:00 55% 60 km
Fr, 29.05. 2:00 55% 60 km
Do, 28.05. 20:00 27% 55 km
Do, 28.05. 14:00 50% 50 km
Do, 28.05. 8:00 84% 45 km
Do, 28.05. 2:00 87% 45 km
Mi, 27.05. 20:00 31% 55 km
Ortszeit Relative Feuchte Sichtweite
Fr, 29.05. 16:00 28% -
Fr, 29.05. 15:50 28% -
Fr, 29.05. 15:40 27% -
Fr, 29.05. 15:30 31% 50 km
Fr, 29.05. 15:20 31% -
Fr, 29.05. 15:10 31% -
Fr, 29.05. 15:00 30% 60 km
Fr, 29.05. 14:30 31% 50 km
Fr, 29.05. 14:00 32% 35 km
Fr, 29.05. 13:30 32% 45 km
Fr, 29.05. 13:00 33% 50 km
Ortszeit Niederschlagsmenge Niederschlagsart
Fr, 29.05. 14:00 0.0 l/m2 in 6 Std. -
Fr, 29.05. 8:00 0.0 l/m2 in 12 Std. -
Fr, 29.05. 2:00 0.0 l/m2 in 6 Std. -
Do, 28.05. 20:00 0.0 l/m2 in 12 Std. -
Do, 28.05. 14:00 0.0 l/m2 in 6 Std. -
Do, 28.05. 8:00 0.0 l/m2 in 12 Std. -
Do, 28.05. 2:00 0.0 l/m2 in 6 Std. -
Mi, 27.05. 20:00 0.0 l/m2 in 12 Std. -
Ortszeit Niederschlagsmenge Niederschlagsart
Fr, 29.05. 16:00 0.0 l/m2 in 1 Std. -
Fr, 29.05. 15:50 keine Meldung -
Fr, 29.05. 15:40 keine Meldung -
Fr, 29.05. 15:30 0.0 l/m2 in 1 Std. -
Fr, 29.05. 15:20 keine Meldung -
Fr, 29.05. 15:10 keine Meldung -
Fr, 29.05. 15:00 0.0 l/m2 in 1 Std. -
Fr, 29.05. 14:30 0.0 l/m2 in 1 Std. -
Fr, 29.05. 14:00 0.0 l/m2 in 1 Std. -
Fr, 29.05. 13:30 0.0 l/m2 in 1 Std. -
Fr, 29.05. 13:00 0.0 l/m2 in 1 Std. -
Ortszeit Stärke Spitze Richtung
km/h Bft. km/h Grad Sektor
Fr, 29.05. 14:00 18 3 43 60° NO
Fr, 29.05. 8:00 11 2 19 50° NO
Fr, 29.05. 2:00 9 2 31 60° NO
Do, 28.05. 20:00 22 4 36 10° N
Do, 28.05. 14:00 14 3 32 10° N
Do, 28.05. 8:00 4 1 7 170° S
Do, 28.05. 2:00 6 1 15 140° SO
Mi, 27.05. 20:00 7 2 29 20° N
Ortszeit Stärke Spitze Richtung
km/h Bft. km/h Grad Sektor
Fr, 29.05. 16:00 18 3 36 70° O
Fr, 29.05. 15:50 18 3 - 70° O
Fr, 29.05. 15:40 17 3 - 70° O
Fr, 29.05. 15:30 18 3 32 70° O
Fr, 29.05. 15:20 18 3 - 70° O
Fr, 29.05. 15:10 18 3 - 80° O
Fr, 29.05. 15:00 28 4 35 60° NO
Fr, 29.05. 14:30 20 4 35 50° NO
Fr, 29.05. 14:00 18 3 43 60° NO
Fr, 29.05. 13:30 20 4 43 60° NO
Fr, 29.05. 13:00 22 4 36 50° NO
Ortszeit Untergrenze Bedeckung Gattung
total tief tief mittel hoch
Fr, 29.05. 14:00 1800 m 1/8 1/8 - - -
Fr, 29.05. 8:00 - 0/8 0/8 - - -
Fr, 29.05. 2:00 - 0/8 0/8 - - -
Do, 28.05. 20:00 - 0/8 0/8 - - -
Do, 28.05. 14:00 1230 m 4/8 4/8 - - -
Do, 28.05. 8:00 2100 m 2/8 2/8 - - -
Do, 28.05. 2:00 8700 m 0/8 0/8 - - -
Mi, 27.05. 20:00 9000 m 2/8 0/8 - - -
Ortszeit Bedeckungsgrad in Achtel und Wolkenuntergrenze
Fr, 29.05. 16:00 1(2400m)
Fr, 29.05. 15:50 1(2400m)
Fr, 29.05. 15:40 3(2100m)
Fr, 29.05. 15:30 5(2100m)
Fr, 29.05. 15:20 5(2100m)
Fr, 29.05. 15:10 4(2100m)
Fr, 29.05. 15:00 4(2100m) 5(2400m)
Fr, 29.05. 14:30 1(2100m)
Fr, 29.05. 14:00 1(1800m)
Fr, 29.05. 13:30 1(1800m)
Fr, 29.05. 13:00 1(1800m)
Ortszeit Luftdruck NN (hPa) Tendenz (hPa in 3 Std.)
Fr, 29.05. 14:00 1025 - 1,7
Fr, 29.05. 8:00 1027 + 0,4
Fr, 29.05. 2:00 1028 0,0
Do, 28.05. 20:00 1026 - 0,7
Do, 28.05. 14:00 1028 - 1,1
Do, 28.05. 8:00 1030 + 0,5
Do, 28.05. 2:00 1030 - 0,6
Mi, 27.05. 20:00 1029 - 0,9
Ortszeit Luftdruck NN (hPa) Tendenz (hPa in 3 Std.)
Fr, 29.05. 16:00 1023 - 1,9
Fr, 29.05. 15:50 1023 keine Meldung
Fr, 29.05. 15:40 1023 keine Meldung
Fr, 29.05. 15:30 1024 - 1,9
Fr, 29.05. 15:20 1024 keine Meldung
Fr, 29.05. 15:10 1024 keine Meldung
Fr, 29.05. 15:00 1024 - 1,8
Fr, 29.05. 14:30 1024 - 1,8
Fr, 29.05. 14:00 1025 - 1,7
Fr, 29.05. 13:30 1025 - 1,6
Fr, 29.05. 13:00 1025 - 1,4
Ortszeit Schneehöhe (cm)
Fr, 29.05. 14:00 -
Fr, 29.05. 8:00 -
Fr, 29.05. 2:00 -
Do, 28.05. 20:00 -
Do, 28.05. 14:00 -
Do, 28.05. 8:00 -
Do, 28.05. 2:00 -
Mi, 27.05. 20:00 -
Ortszeit Schneehöhe (cm)
Fr, 29.05. 16:00 -
Fr, 29.05. 15:50 -
Fr, 29.05. 15:40 -
Fr, 29.05. 15:30 -
Fr, 29.05. 15:20 -
Fr, 29.05. 15:10 -
Fr, 29.05. 15:00 -
Fr, 29.05. 14:30 -
Fr, 29.05. 14:00 -
Fr, 29.05. 13:30 -
Fr, 29.05. 13:00 -
Link zu dieser Seite / Seite empfehlen

Das Wetter in ...